createdAt,value
2023-09-07T00:00:05.460Z,2.72
2023-09-07T00:02:39.546Z,2.85
2023-09-07T00:05:10.494Z,2.80
2023-09-07T00:07:40.065Z,2.72
2023-09-07T00:10:08.993Z,2.90
2023-09-07T00:12:40.648Z,3.20
2023-09-07T00:15:09.852Z,2.70
2023-09-07T00:17:38.259Z,3.00
2023-09-07T00:20:11.781Z,2.60
2023-09-07T00:22:41.526Z,3.13
2023-09-07T00:25:10.960Z,2.72
2023-09-07T00:27:39.369Z,3.30
2023-09-07T00:30:07.734Z,3.13
2023-09-07T00:32:36.157Z,2.85
2023-09-07T00:35:04.673Z,3.00
2023-09-07T00:37:33.050Z,3.08
2023-09-07T00:40:04.748Z,2.60
2023-09-07T00:42:34.210Z,2.90
2023-09-07T00:45:02.549Z,2.90
2023-09-07T00:47:31.132Z,3.28
2023-09-07T00:50:00.660Z,3.47
2023-09-07T00:52:30.144Z,3.08
2023-09-07T00:54:58.733Z,3.28
2023-09-07T00:57:28.501Z,3.60
2023-09-07T00:59:57.110Z,3.05
2023-09-07T01:02:25.983Z,3.00
2023-09-07T01:04:54.958Z,3.10
2023-09-07T01:07:25.408Z,3.05
2023-09-07T01:09:55.334Z,2.97
2023-09-07T01:12:23.786Z,3.38
2023-09-07T01:14:54.252Z,3.65
2023-09-07T01:17:23.197Z,3.20
2023-09-07T01:19:51.936Z,3.22
2023-09-07T01:22:24.020Z,3.65
2023-09-07T01:24:53.724Z,4.10
2023-09-07T01:27:22.060Z,3.08
2023-09-07T01:29:51.912Z,3.22
2023-09-07T01:36:02.811Z,3.17
2023-09-07T01:38:32.784Z,3.40
2023-09-07T01:41:01.345Z,2.70
2023-09-07T01:43:29.735Z,3.15
2023-09-07T01:45:58.159Z,2.95
2023-09-07T01:48:26.582Z,3.42
2023-09-07T01:50:55.654Z,3.30
2023-09-07T01:53:24.254Z,3.28
2023-09-07T01:55:57.105Z,3.22
2023-09-07T01:58:26.110Z,3.38
2023-09-07T02:00:55.585Z,3.25
2023-09-07T02:03:23.997Z,3.33
2023-09-07T02:05:52.571Z,2.90
2023-09-07T02:08:21.063Z,3.00
2023-09-07T02:10:49.670Z,3.35
2023-09-07T02:13:19.595Z,3.13
2023-09-07T02:15:48.372Z,3.50
2023-09-07T02:18:16.763Z,3.80
2023-09-07T02:20:45.365Z,3.25
2023-09-07T02:23:13.808Z,3.95
2023-09-07T02:25:43.458Z,3.17
2023-09-07T02:28:11.804Z,4.05
2023-09-07T02:30:41.684Z,3.45
2023-09-07T02:33:10.189Z,3.67
2023-09-07T02:35:40.110Z,3.72
2023-09-07T02:38:08.608Z,3.50
2023-09-07T02:40:43.085Z,2.97
2023-09-07T02:43:11.918Z,3.15
2023-09-07T02:45:41.809Z,3.67
2023-09-07T02:48:10.780Z,3.88
2023-09-07T02:50:39.362Z,3.08
2023-09-07T02:53:07.771Z,3.08
2023-09-07T02:55:36.533Z,3.30
2023-09-07T02:58:05.534Z,3.70
2023-09-07T03:00:34.052Z,3.30
2023-09-07T03:03:04.089Z,3.28
2023-09-07T03:05:32.644Z,3.67
2023-09-07T03:08:00.985Z,3.53
2023-09-07T03:10:29.431Z,3.53
2023-09-07T03:12:57.861Z,3.60
2023-09-07T03:15:26.221Z,3.45
2023-09-07T03:17:54.623Z,3.63
2023-09-07T03:20:24.360Z,3.88
2023-09-07T03:22:52.777Z,4.07
2023-09-07T03:25:21.274Z,3.15
2023-09-07T03:27:49.644Z,4.20
2023-09-07T03:30:18.032Z,3.38
2023-09-07T03:32:47.611Z,3.17
2023-09-07T03:35:16.630Z,3.70
2023-09-07T03:37:46.504Z,4.10
2023-09-07T03:40:14.854Z,3.72
2023-09-07T03:42:44.553Z,3.47
2023-09-07T03:45:13.021Z,3.97
2023-09-07T03:47:41.492Z,4.20
2023-09-07T03:50:10.240Z,3.72
2023-09-07T03:52:38.624Z,3.65
2023-09-07T03:55:09.250Z,3.72
2023-09-07T03:57:37.824Z,3.45
2023-09-07T04:00:09.527Z,3.45
2023-09-07T04:02:38.256Z,3.30
2023-09-07T04:05:07.431Z,3.15
2023-09-07T04:07:35.894Z,3.50
2023-09-07T04:10:04.320Z,3.65
2023-09-07T04:12:34.580Z,3.47
2023-09-07T04:15:03.729Z,3.83
2023-09-07T04:17:40.379Z,3.95
2023-09-07T04:20:10.148Z,4.00
2023-09-07T04:22:38.552Z,3.90
2023-09-07T04:25:07.226Z,3.45
2023-09-07T04:27:38.398Z,3.65
2023-09-07T04:30:07.910Z,3.53
2023-09-07T04:32:36.441Z,3.95
2023-09-07T04:35:05.156Z,3.63
2023-09-07T04:37:33.503Z,4.10
2023-09-07T04:40:02.016Z,4.00
2023-09-07T04:42:30.384Z,4.05
2023-09-07T04:45:00.265Z,3.67
2023-09-07T04:47:28.644Z,4.05
2023-09-07T04:49:57.103Z,4.00
2023-09-07T04:52:25.437Z,4.28
2023-09-07T04:54:53.822Z,3.63
2023-09-07T04:57:22.168Z,3.88
2023-09-07T04:59:50.545Z,3.90
2023-09-07T05:02:20.297Z,4.68
2023-09-07T05:04:48.798Z,4.57
2023-09-07T05:07:17.103Z,4.50
2023-09-07T05:09:45.568Z,3.78
2023-09-07T05:12:15.490Z,3.83
2023-09-07T05:14:44.053Z,4.13
2023-09-07T05:17:13.082Z,3.88
2023-09-07T05:19:44.451Z,4.22
2023-09-07T05:22:13.147Z,4.05
2023-09-07T05:24:42.005Z,4.22
2023-09-07T05:27:11.696Z,4.55
2023-09-07T05:29:40.328Z,3.92
2023-09-07T05:32:10.352Z,4.07
2023-09-07T05:34:38.699Z,4.45
2023-09-07T05:37:08.925Z,4.13
2023-09-07T05:39:37.328Z,4.75
2023-09-07T05:42:05.766Z,3.92
2023-09-07T05:44:34.191Z,4.20
2023-09-07T05:47:03.399Z,4.28
2023-09-07T05:49:31.917Z,4.10
2023-09-07T05:52:00.454Z,3.90
2023-09-07T05:54:30.302Z,3.72
2023-09-07T05:56:58.710Z,4.05
2023-09-07T05:59:27.067Z,3.55
2023-09-07T06:01:55.583Z,3.80
2023-09-07T06:04:24.110Z,4.00
2023-09-07T06:06:53.007Z,3.72
2023-09-07T06:09:21.434Z,3.58
2023-09-07T06:11:51.289Z,4.07
2023-09-07T06:14:19.678Z,3.63
2023-09-07T06:16:48.079Z,4.20
2023-09-07T06:19:16.558Z,4.47
2023-09-07T06:21:44.969Z,3.53
2023-09-07T06:24:13.384Z,3.90
2023-09-07T06:26:41.837Z,3.92
2023-09-07T06:29:11.639Z,3.88
2023-09-07T06:31:40.123Z,3.70
2023-09-07T06:34:08.598Z,3.95
2023-09-07T06:36:47.568Z,4.32
2023-09-07T06:39:16.878Z,4.43
2023-09-07T06:41:47.091Z,4.45
2023-09-07T06:44:16.961Z,4.82
2023-09-07T06:46:45.481Z,5.28
2023-09-07T06:49:13.963Z,6.65
2023-09-07T06:51:42.388Z,5.18
2023-09-07T06:54:10.991Z,5.80
2023-09-07T06:56:39.391Z,5.78
2023-09-07T06:59:07.838Z,5.20
2023-09-07T07:01:38.957Z,6.45
2023-09-07T07:04:07.728Z,6.35
2023-09-07T07:06:36.395Z,6.00
2023-09-07T07:09:04.878Z,6.20
2023-09-07T07:11:33.327Z,6.57
2023-09-07T07:14:01.796Z,5.88
2023-09-07T07:16:30.248Z,5.72
2023-09-07T07:19:00.155Z,6.53
2023-09-07T07:21:28.667Z,6.68
2023-09-07T07:23:57.026Z,6.82
2023-09-07T07:26:25.440Z,6.57
2023-09-07T07:28:53.887Z,6.85
2023-09-07T07:31:22.392Z,6.70
2023-09-07T07:33:51.162Z,7.25
2023-09-07T07:36:22.087Z,7.07
2023-09-07T07:38:51.090Z,6.32
2023-09-07T07:41:19.700Z,6.30
2023-09-07T07:43:48.159Z,7.20
2023-09-07T07:46:17.178Z,5.85
2023-09-07T07:48:45.890Z,6.07
2023-09-07T07:51:14.332Z,6.68
2023-09-07T07:53:44.266Z,6.93
2023-09-07T07:56:17.588Z,5.75
2023-09-07T07:58:46.776Z,5.90
2023-09-07T08:01:18.943Z,5.68
2023-09-07T08:03:47.762Z,5.95
2023-09-07T08:06:16.277Z,6.43
2023-09-07T08:08:46.249Z,6.63
2023-09-07T08:11:15.791Z,6.53
2023-09-07T08:13:47.688Z,5.47
2023-09-07T08:16:16.460Z,6.15
2023-09-07T08:18:45.150Z,5.97
2023-09-07T08:21:15.568Z,6.53
2023-09-07T08:23:44.168Z,6.28
2023-09-07T08:26:15.980Z,5.85
2023-09-07T08:28:47.790Z,5.45
2023-09-07T08:31:22.390Z,6.28
2023-09-07T08:33:52.051Z,5.80
2023-09-07T08:36:23.569Z,5.57
2023-09-07T08:38:55.037Z,6.50
2023-09-07T08:41:25.755Z,5.07
2023-09-07T08:43:56.351Z,5.80
2023-09-07T08:46:25.593Z,5.80
2023-09-07T08:48:57.108Z,5.22
2023-09-07T08:51:29.086Z,5.60
2023-09-07T08:53:57.828Z,5.35
2023-09-07T08:56:29.010Z,5.82
2023-09-07T08:58:57.437Z,6.10
2023-09-07T09:01:26.236Z,4.65
2023-09-07T09:03:54.961Z,4.55
2023-09-07T09:06:26.204Z,5.93
2023-09-07T09:08:55.997Z,5.20
2023-09-07T09:11:25.267Z,5.38
2023-09-07T09:13:55.993Z,6.53
2023-09-07T09:16:24.491Z,6.30
2023-09-07T09:18:54.074Z,6.10
2023-09-07T09:21:22.760Z,6.30
2023-09-07T09:23:51.846Z,5.07
2023-09-07T09:26:20.498Z,5.05
2023-09-07T09:28:51.700Z,4.60
2023-09-07T09:31:21.552Z,5.47
2023-09-07T09:33:52.492Z,5.55
2023-09-07T09:36:21.123Z,4.47
2023-09-07T09:38:51.152Z,5.57
2023-09-07T09:41:20.039Z,4.75
2023-09-07T09:43:50.443Z,4.70
2023-09-07T09:46:19.775Z,5.03
2023-09-07T09:48:50.332Z,4.88
2023-09-07T09:51:19.177Z,4.97
2023-09-07T09:53:47.956Z,4.90
2023-09-07T09:56:16.414Z,4.53
2023-09-07T09:58:44.978Z,4.57
2023-09-07T10:01:15.284Z,4.43
2023-09-07T10:03:47.167Z,4.40
2023-09-07T10:06:22.889Z,4.40
2023-09-07T10:09:01.524Z,4.18
2023-09-07T10:11:30.813Z,4.90
2023-09-07T10:14:04.592Z,4.22
2023-09-07T10:16:43.624Z,4.00
2023-09-07T10:19:18.692Z,4.45
2023-09-07T10:21:48.489Z,4.40
2023-09-07T10:24:26.929Z,5.00
2023-09-07T10:27:02.304Z,4.57
2023-09-07T10:29:31.111Z,4.10
2023-09-07T10:32:08.198Z,4.47
2023-09-07T10:34:40.686Z,4.72
2023-09-07T10:37:11.633Z,3.95
2023-09-07T10:39:41.545Z,4.32
2023-09-07T10:42:09.912Z,4.22
2023-09-07T10:44:38.506Z,3.78
2023-09-07T10:47:07.012Z,4.00
2023-09-07T10:49:35.464Z,3.70
2023-09-07T10:52:05.239Z,3.78
2023-09-07T10:54:35.126Z,3.58
2023-09-07T10:57:10.490Z,4.18
2023-09-07T10:59:39.245Z,3.72
2023-09-07T11:02:08.237Z,4.13
2023-09-07T11:04:38.040Z,4.00
2023-09-07T11:07:06.702Z,3.90
2023-09-07T11:09:36.506Z,3.95
2023-09-07T11:12:09.275Z,4.10
2023-09-07T11:14:37.801Z,4.15
2023-09-07T11:17:06.468Z,3.90
2023-09-07T11:19:36.192Z,4.18
2023-09-07T11:22:05.636Z,4.43
2023-09-07T11:24:37.419Z,4.47
2023-09-07T11:27:06.039Z,3.58
2023-09-07T11:29:34.828Z,3.90
2023-09-07T11:32:10.028Z,3.63
2023-09-07T11:34:39.005Z,3.72
2023-09-07T11:37:07.408Z,4.35
2023-09-07T11:39:37.216Z,3.65
2023-09-07T11:42:05.854Z,3.20
2023-09-07T11:44:34.260Z,4.00
2023-09-07T11:47:02.751Z,3.95
2023-09-07T11:49:32.970Z,3.72
2023-09-07T11:52:01.543Z,3.28
2023-09-07T11:54:30.054Z,3.00
2023-09-07T11:56:59.826Z,3.53
2023-09-07T11:59:32.273Z,4.05
2023-09-07T12:02:04.310Z,3.47
2023-09-07T12:04:33.166Z,3.60
2023-09-07T12:07:01.626Z,3.50
2023-09-07T12:09:30.014Z,3.25
2023-09-07T12:11:59.939Z,3.60
2023-09-07T12:14:28.481Z,3.75
2023-09-07T12:16:57.212Z,3.20
2023-09-07T12:19:26.184Z,3.38
2023-09-07T12:21:55.148Z,3.60
2023-09-07T12:24:23.766Z,3.58
2023-09-07T12:26:52.514Z,3.75
2023-09-07T12:29:22.987Z,3.45
2023-09-07T12:31:51.508Z,3.28
2023-09-07T12:34:20.046Z,3.25
2023-09-07T12:36:48.654Z,3.78
2023-09-07T12:39:17.314Z,3.60
2023-09-07T12:41:45.776Z,3.38
2023-09-07T12:44:14.292Z,3.47
2023-09-07T12:46:44.097Z,2.70
2023-09-07T12:49:12.766Z,3.10
2023-09-07T12:51:41.467Z,3.00
2023-09-07T12:54:10.071Z,2.97
2023-09-07T12:56:41.483Z,3.25
2023-09-07T12:59:10.262Z,3.00
2023-09-07T13:01:39.096Z,3.28
2023-09-07T13:04:12.683Z,3.35
2023-09-07T13:06:41.263Z,3.00
2023-09-07T13:09:10.835Z,2.80
2023-09-07T13:11:40.459Z,2.75
2023-09-07T13:14:12.219Z,2.90
2023-09-07T13:16:41.232Z,2.83
2023-09-07T13:19:09.721Z,2.83
2023-09-07T13:21:39.634Z,2.90
2023-09-07T13:24:07.460Z,2.67
2023-09-07T13:26:36.015Z,2.50
2023-09-07T13:29:05.189Z,2.58
2023-09-07T13:31:33.648Z,2.80
2023-09-07T13:34:02.230Z,2.45
2023-09-07T13:36:30.699Z,2.63
2023-09-07T13:39:00.653Z,2.33
2023-09-07T13:41:29.171Z,2.88
2023-09-07T13:43:57.990Z,2.70
2023-09-07T13:46:26.598Z,2.75
2023-09-07T13:48:55.334Z,2.90
2023-09-07T13:51:23.918Z,2.63
2023-09-07T13:53:52.492Z,2.25
2023-09-07T13:56:22.309Z,2.83
2023-09-07T13:58:50.787Z,2.65
2023-09-07T14:01:19.244Z,2.67
2023-09-07T14:03:47.799Z,2.55
2023-09-07T14:06:16.278Z,2.28
2023-09-07T14:08:45.044Z,2.80
2023-09-07T14:11:13.500Z,2.65
2023-09-07T14:13:43.413Z,2.60
2023-09-07T14:16:11.981Z,2.72
2023-09-07T14:18:40.460Z,2.90
2023-09-07T14:21:08.958Z,2.67
2023-09-07T14:23:38.374Z,2.40
2023-09-07T14:26:06.951Z,2.53
2023-09-07T14:28:35.512Z,2.50
2023-09-07T14:31:07.623Z,2.20
2023-09-07T14:33:39.987Z,2.58
2023-09-07T14:36:09.064Z,2.80
2023-09-07T14:38:41.979Z,2.85
2023-09-07T14:41:12.650Z,2.50
2023-09-07T14:43:41.408Z,2.42
2023-09-07T14:46:11.323Z,2.42
2023-09-07T14:48:39.928Z,2.45
2023-09-07T14:51:08.353Z,2.60
2023-09-07T14:53:36.825Z,2.90
2023-09-07T14:56:05.381Z,2.58
2023-09-07T14:58:34.217Z,2.50
2023-09-07T15:01:03.531Z,2.78
2023-09-07T15:03:33.605Z,2.50
2023-09-07T15:06:02.320Z,2.75
2023-09-07T15:08:31.329Z,2.30
2023-09-07T15:11:00.850Z,2.70
2023-09-07T15:13:30.139Z,2.95
2023-09-07T15:15:58.829Z,2.47
2023-09-07T15:18:27.426Z,2.50
2023-09-07T15:20:58.032Z,2.63
2023-09-07T15:23:27.764Z,2.63
2023-09-07T15:25:56.658Z,2.53
2023-09-07T15:28:25.161Z,2.40
2023-09-07T15:30:53.563Z,2.08
2023-09-07T15:33:23.015Z,2.50
2023-09-07T15:35:51.787Z,2.35
2023-09-07T15:38:22.006Z,2.60
2023-09-07T15:40:50.700Z,2.38
2023-09-07T15:43:19.249Z,2.65
2023-09-07T15:45:47.740Z,2.40
2023-09-07T15:48:16.277Z,2.55
2023-09-07T15:50:45.033Z,2.72
2023-09-07T15:53:13.533Z,2.70
2023-09-07T15:55:43.477Z,2.33
2023-09-07T15:58:13.658Z,2.33
2023-09-07T16:00:42.096Z,2.92
2023-09-07T16:03:10.875Z,2.40
2023-09-07T16:05:39.538Z,2.67
2023-09-07T16:08:08.278Z,2.63
2023-09-07T16:10:37.004Z,2.50
2023-09-07T16:13:06.904Z,2.70
2023-09-07T16:15:35.387Z,2.22
2023-09-07T16:18:03.873Z,3.25
2023-09-07T16:20:32.392Z,2.60
2023-09-07T16:23:00.841Z,2.45
2023-09-07T16:25:29.319Z,2.45
2023-09-07T16:27:59.357Z,2.63
2023-09-07T16:30:29.351Z,2.40
2023-09-07T16:32:57.907Z,2.78
2023-09-07T16:35:26.449Z,2.38
2023-09-07T16:37:54.835Z,2.70
2023-09-07T16:40:23.266Z,2.30
2023-09-07T16:42:51.806Z,2.88
2023-09-07T16:45:20.315Z,2.70
2023-09-07T16:47:50.184Z,2.90
2023-09-07T16:50:19.337Z,2.83
2023-09-07T16:52:47.760Z,2.47
2023-09-07T16:55:16.411Z,2.33
2023-09-07T16:57:44.804Z,2.40
2023-09-07T17:00:13.833Z,2.55
2023-09-07T17:02:42.479Z,2.63
2023-09-07T17:05:14.463Z,2.40
2023-09-07T17:07:43.015Z,2.33
2023-09-07T17:10:11.637Z,2.60
2023-09-07T17:12:40.033Z,2.65
2023-09-07T17:15:09.015Z,2.80
2023-09-07T17:17:37.419Z,2.90
2023-09-07T17:20:06.511Z,2.42
2023-09-07T17:22:36.661Z,2.97
2023-09-07T17:25:05.597Z,2.55
2023-09-07T17:27:34.021Z,2.70
2023-09-07T17:30:02.438Z,2.85
2023-09-07T17:32:30.934Z,2.90
2023-09-07T17:35:02.851Z,3.40
2023-09-07T17:37:31.396Z,6.05
2023-09-07T17:40:02.283Z,7.82
2023-09-07T17:42:31.740Z,12.82
2023-09-07T17:45:00.314Z,16.27
2023-09-07T17:47:28.963Z,17.08
2023-09-07T17:49:57.594Z,17.15
2023-09-07T17:52:26.488Z,16.23
2023-09-07T17:54:55.060Z,15.18
2023-09-07T17:57:25.013Z,11.13
2023-09-07T17:59:53.488Z,9.45
2023-09-07T18:02:23.566Z,9.30
2023-09-07T18:04:52.482Z,6.78
2023-09-07T18:07:20.983Z,5.90
2023-09-07T18:09:49.394Z,6.32
2023-09-07T18:12:17.856Z,5.20
2023-09-07T18:14:48.652Z,4.82
2023-09-07T18:17:17.178Z,4.10
2023-09-07T18:19:45.637Z,4.18
2023-09-07T18:22:15.714Z,4.40
2023-09-07T18:24:44.120Z,3.90
2023-09-07T18:27:12.668Z,4.00
2023-09-07T18:29:41.068Z,3.90
2023-09-07T18:32:10.806Z,3.85
2023-09-07T18:34:39.299Z,4.18
2023-09-07T18:37:07.835Z,3.60
2023-09-07T18:39:36.312Z,3.85
2023-09-07T18:42:04.875Z,3.15
2023-09-07T18:44:33.545Z,3.83
2023-09-07T18:47:02.105Z,3.95
2023-09-07T18:49:32.522Z,3.80
2023-09-07T18:52:00.917Z,4.30
2023-09-07T18:54:29.989Z,4.75
2023-09-07T18:56:58.450Z,4.03
2023-09-07T18:59:26.914Z,3.88
2023-09-07T19:01:55.553Z,4.93
2023-09-07T19:04:28.618Z,4.18
2023-09-07T19:06:58.576Z,3.75
2023-09-07T19:09:27.367Z,5.43
2023-09-07T19:11:55.757Z,4.78
2023-09-07T19:14:24.427Z,4.82
2023-09-07T19:16:53.195Z,4.55
2023-09-07T19:19:21.614Z,4.80
2023-09-07T19:21:50.094Z,4.70
2023-09-07T19:24:19.840Z,4.05
2023-09-07T19:26:50.379Z,4.50
2023-09-07T19:29:18.869Z,3.50
2023-09-07T19:31:47.626Z,3.78
2023-09-07T19:34:17.092Z,4.03
2023-09-07T19:36:45.588Z,4.03
2023-09-07T19:39:14.111Z,4.18
2023-09-07T19:41:43.952Z,4.22
2023-09-07T19:44:12.420Z,4.10
2023-09-07T19:46:41.017Z,4.15
2023-09-07T19:49:09.759Z,4.10
2023-09-07T19:51:39.556Z,4.03
2023-09-07T19:54:08.048Z,3.95
2023-09-07T19:56:36.433Z,3.92
2023-09-07T19:59:06.219Z,3.22
2023-09-07T20:01:53.635Z,3.63
2023-09-07T20:04:22.146Z,3.55
2023-09-07T20:06:50.644Z,3.75
2023-09-07T20:09:21.369Z,3.60
2023-09-07T20:11:49.878Z,3.47
2023-09-07T20:14:20.734Z,3.72
2023-09-07T20:16:49.533Z,4.25
2023-09-07T20:19:18.274Z,4.15
2023-09-07T20:21:46.678Z,4.35
2023-09-07T20:24:15.158Z,4.32
2023-09-07T20:26:43.864Z,4.60
2023-09-07T20:29:12.583Z,3.85
2023-09-07T20:31:43.594Z,3.95
2023-09-07T20:34:12.139Z,5.00
2023-09-07T20:36:40.662Z,3.78
2023-09-07T20:39:11.246Z,3.50
2023-09-07T20:41:39.762Z,4.18
2023-09-07T20:44:08.431Z,3.58
2023-09-07T20:46:36.938Z,4.43
2023-09-07T20:49:06.761Z,3.90
2023-09-07T20:51:37.188Z,3.53
2023-09-07T20:54:05.878Z,3.50
2023-09-07T20:56:34.300Z,3.72
2023-09-07T20:59:03.082Z,3.38
2023-09-07T21:01:31.771Z,3.08
2023-09-07T21:04:00.346Z,4.18
2023-09-07T21:06:30.360Z,3.92
2023-09-07T21:08:58.866Z,4.18
2023-09-07T21:11:27.266Z,3.40
2023-09-07T21:13:55.671Z,3.75
2023-09-07T21:16:24.580Z,3.72
2023-09-07T21:18:53.963Z,3.13
2023-09-07T21:21:22.511Z,3.35
2023-09-07T21:23:52.845Z,4.00
2023-09-07T21:26:21.298Z,3.42
2023-09-07T21:28:49.897Z,3.45
2023-09-07T21:31:18.523Z,3.20
2023-09-07T21:33:47.602Z,3.55
2023-09-07T21:36:16.379Z,3.45
2023-09-07T21:38:44.918Z,3.72
2023-09-07T21:41:16.391Z,3.28
2023-09-07T21:43:44.872Z,3.33
2023-09-07T21:46:13.436Z,3.65
2023-09-07T21:48:42.384Z,4.25
2023-09-07T21:51:10.767Z,3.50
2023-09-07T21:53:41.626Z,3.17
2023-09-07T21:56:10.204Z,3.08
2023-09-07T21:58:40.079Z,3.20
2023-09-07T22:01:08.689Z,3.00
2023-09-07T22:03:37.347Z,4.30
2023-09-07T22:06:07.139Z,3.40
2023-09-07T22:08:35.786Z,3.45
2023-09-07T22:11:04.548Z,3.45
2023-09-07T22:13:32.935Z,3.90
2023-09-07T22:16:02.739Z,4.38
2023-09-07T22:18:31.292Z,3.50
2023-09-07T22:21:00.283Z,3.20
2023-09-07T22:23:41.925Z,3.70
2023-09-07T22:26:12.040Z,3.78
2023-09-07T22:28:40.503Z,3.28
2023-09-07T22:31:10.349Z,3.22
2023-09-07T22:33:38.883Z,3.38
2023-09-07T22:36:07.548Z,3.20
2023-09-07T22:38:36.288Z,3.08
2023-09-07T22:41:04.888Z,3.63
2023-09-07T22:43:33.868Z,3.50
2023-09-07T22:46:02.583Z,3.33
2023-09-07T22:48:32.735Z,4.15
2023-09-07T22:51:01.581Z,3.55
2023-09-07T22:53:30.113Z,3.75
2023-09-07T22:55:58.828Z,3.50
2023-09-07T22:58:27.456Z,3.85
2023-09-07T23:00:55.942Z,3.47
2023-09-07T23:03:24.552Z,3.08
2023-09-07T23:05:54.545Z,4.03
2023-09-07T23:08:23.019Z,3.67
2023-09-07T23:10:53.316Z,3.47
2023-09-07T23:13:21.928Z,3.67
2023-09-07T23:15:50.531Z,2.90
2023-09-07T23:18:20.278Z,3.00
2023-09-07T23:20:48.852Z,3.08
2023-09-07T23:23:18.708Z,3.22
2023-09-07T23:25:47.294Z,3.25
2023-09-07T23:28:15.722Z,2.97
2023-09-07T23:30:44.154Z,2.83
2023-09-07T23:33:12.646Z,3.45
2023-09-07T23:35:41.153Z,2.63
2023-09-07T23:38:09.671Z,3.22
2023-09-07T23:40:39.492Z,3.40
2023-09-07T23:43:09.212Z,2.67
2023-09-07T23:45:37.816Z,2.70
2023-09-07T23:48:06.684Z,3.55
2023-09-07T23:50:35.140Z,3.53
2023-09-07T23:53:04.152Z,3.25
2023-09-07T23:55:33.167Z,3.15
2023-09-07T23:58:03.001Z,3.28
